createdAt,value
2019-03-29T00:00:06.408Z,66.11
2019-03-29T00:01:06.932Z,66.31
2019-03-29T00:02:07.431Z,66.31
2019-03-29T00:03:08.992Z,66.22
2019-03-29T00:04:09.588Z,66.31
2019-03-29T00:05:10.122Z,66.11
2019-03-29T00:06:10.888Z,66.11
2019-03-29T00:07:11.586Z,66.42
2019-03-29T00:08:12.042Z,66.31
2019-03-29T00:09:12.596Z,66.11
2019-03-29T00:10:13.053Z,66.45
2019-03-29T00:11:15.574Z,66.45
2019-03-29T00:12:16.042Z,66.55
2019-03-29T00:13:16.618Z,66.25
2019-03-29T00:14:17.072Z,66.45
2019-03-29T00:15:17.540Z,66.55
2019-03-29T00:16:17.989Z,66.76
2019-03-29T00:17:18.531Z,66.45
2019-03-29T00:18:18.969Z,66.25
2019-03-29T00:19:19.518Z,66.79
2019-03-29T00:20:20.213Z,67.10
2019-03-29T00:21:20.869Z,67.10
2019-03-29T00:22:21.340Z,66.79
2019-03-29T00:23:23.000Z,66.69
2019-03-29T00:24:23.516Z,66.48
2019-03-29T00:25:24.064Z,66.82
2019-03-29T00:26:25.582Z,66.82
2019-03-29T00:27:26.175Z,66.72
2019-03-29T00:28:26.634Z,66.61
2019-03-29T00:29:29.985Z,66.72
2019-03-29T00:30:30.496Z,66.82
2019-03-29T00:31:30.968Z,66.61
2019-03-29T00:32:31.919Z,66.61
2019-03-29T00:33:32.416Z,66.31
2019-03-29T00:34:32.872Z,66.41
2019-03-29T00:35:33.392Z,66.61
2019-03-29T00:36:34.617Z,66.61
2019-03-29T00:37:35.142Z,66.41
2019-03-29T00:38:35.588Z,66.41
2019-03-29T00:39:37.151Z,66.31
2019-03-29T00:40:37.604Z,66.85
2019-03-29T00:41:38.157Z,66.44
2019-03-29T00:42:38.611Z,66.72
2019-03-29T00:43:39.055Z,66.75
2019-03-29T00:44:39.485Z,66.64
2019-03-29T00:45:39.937Z,66.85
2019-03-29T00:46:40.419Z,66.75
2019-03-29T00:47:40.918Z,66.64
2019-03-29T00:48:41.372Z,66.64
2019-03-29T00:49:41.820Z,66.75
2019-03-29T00:50:42.302Z,66.96
2019-03-29T00:51:42.858Z,66.99
2019-03-29T00:52:43.329Z,66.85
2019-03-29T00:53:43.767Z,66.96
2019-03-29T00:54:44.204Z,66.99
2019-03-29T00:55:44.641Z,67.16
2019-03-29T00:56:45.087Z,66.88
2019-03-29T00:57:45.554Z,66.88
2019-03-29T00:58:46.040Z,67.19
2019-03-29T00:59:46.561Z,66.99
2019-03-29T01:00:47.006Z,66.78
2019-03-29T01:01:47.461Z,67.30
2019-03-29T01:02:47.923Z,67.09
2019-03-29T01:03:48.462Z,66.99
2019-03-29T01:04:48.911Z,67.09
2019-03-29T01:05:49.349Z,66.99
2019-03-29T01:06:49.792Z,67.43
2019-03-29T01:07:50.282Z,67.19
2019-03-29T01:08:50.748Z,67.12
2019-03-29T01:09:51.240Z,67.22
2019-03-29T01:10:51.686Z,67.53
2019-03-29T01:11:52.136Z,67.53
2019-03-29T01:12:52.747Z,67.53
2019-03-29T01:13:53.195Z,67.43
2019-03-29T01:14:53.738Z,67.63
2019-03-29T01:15:54.182Z,67.22
2019-03-29T01:16:54.650Z,67.53
2019-03-29T01:17:55.102Z,67.53
2019-03-29T01:18:56.609Z,67.43
2019-03-29T01:19:57.043Z,67.43
2019-03-29T01:20:57.548Z,67.46
2019-03-29T01:21:57.994Z,67.36
2019-03-29T01:22:58.517Z,67.43
2019-03-29T01:23:58.965Z,67.36
2019-03-29T01:24:59.531Z,67.43
2019-03-29T01:26:00.970Z,67.33
2019-03-29T01:27:01.604Z,67.36
2019-03-29T01:28:02.097Z,67.15
2019-03-29T01:29:02.615Z,67.15
2019-03-29T01:30:03.053Z,67.36
2019-03-29T01:31:03.582Z,67.25
2019-03-29T01:32:04.030Z,67.25
2019-03-29T01:33:04.520Z,67.15
2019-03-29T01:34:05.003Z,67.25
2019-03-29T01:35:05.531Z,67.36
2019-03-29T01:36:06.003Z,67.25
2019-03-29T01:37:06.557Z,67.36
2019-03-29T01:38:20.806Z,67.39
2019-03-29T01:39:13.431Z,67.60
2019-03-29T01:40:13.974Z,67.49
2019-03-29T01:41:14.439Z,67.49
2019-03-29T01:42:15.027Z,67.60
2019-03-29T01:43:15.528Z,67.39
2019-03-29T01:44:16.034Z,67.49
2019-03-29T01:45:16.471Z,67.18
2019-03-29T01:46:16.988Z,67.49
2019-03-29T01:47:17.437Z,67.49
2019-03-29T01:48:17.950Z,67.49
2019-03-29T01:49:18.397Z,67.60
2019-03-29T01:50:18.951Z,67.80
2019-03-29T01:51:19.383Z,67.60
2019-03-29T01:52:20.035Z,67.60
2019-03-29T01:53:20.567Z,67.70
2019-03-29T01:54:22.045Z,67.73
2019-03-29T01:55:23.080Z,67.73
2019-03-29T01:56:23.806Z,67.63
2019-03-29T01:57:24.241Z,67.73
2019-03-29T01:58:25.147Z,67.70
2019-03-29T01:59:25.876Z,67.83
2019-03-29T02:00:26.384Z,67.83
2019-03-29T02:01:26.865Z,67.63
2019-03-29T02:02:27.452Z,67.73
2019-03-29T02:03:27.940Z,67.63
2019-03-29T02:04:28.466Z,67.63
2019-03-29T02:05:28.931Z,67.63
2019-03-29T02:06:29.516Z,67.73
2019-03-29T02:07:30.018Z,67.73
2019-03-29T02:08:35.986Z,67.83
2019-03-29T02:09:36.996Z,67.63
2019-03-29T02:10:37.511Z,67.86
2019-03-29T02:11:37.961Z,67.86
2019-03-29T02:12:38.423Z,67.86
2019-03-29T02:13:38.893Z,67.86
2019-03-29T02:14:39.338Z,67.86
2019-03-29T02:15:39.894Z,67.76
2019-03-29T02:16:40.346Z,67.66
2019-03-29T02:17:40.827Z,67.66
2019-03-29T02:18:41.296Z,67.86
2019-03-29T02:19:41.857Z,67.66
2019-03-29T02:20:42.304Z,67.66
2019-03-29T02:21:43.058Z,67.66
2019-03-29T02:22:43.793Z,67.66
2019-03-29T02:23:44.289Z,67.86
2019-03-29T02:24:44.752Z,67.66
2019-03-29T02:25:45.277Z,67.66
2019-03-29T02:26:45.714Z,67.76
2019-03-29T02:27:47.249Z,67.76
2019-03-29T02:28:47.734Z,67.69
2019-03-29T02:29:48.281Z,67.69
2019-03-29T02:30:48.745Z,67.79
2019-03-29T02:31:49.318Z,67.97
2019-03-29T02:32:49.794Z,67.79
2019-03-29T02:33:50.302Z,67.69
2019-03-29T02:34:50.757Z,67.69
2019-03-29T02:35:51.312Z,67.79
2019-03-29T02:36:51.753Z,67.79
2019-03-29T02:37:52.243Z,67.79
2019-03-29T02:38:55.654Z,67.90
2019-03-29T02:39:56.759Z,68.21
2019-03-29T02:40:57.220Z,67.48
2019-03-29T02:42:04.648Z,67.69
2019-03-29T02:43:05.220Z,68.10
2019-03-29T02:44:08.078Z,67.90
2019-03-29T02:45:08.553Z,67.58
2019-03-29T02:46:17.660Z,67.48
2019-03-29T02:47:18.132Z,67.58
2019-03-29T02:48:19.612Z,67.90
2019-03-29T02:49:20.065Z,67.82
2019-03-29T02:50:20.552Z,67.93
2019-03-29T02:51:20.992Z,67.48
2019-03-29T02:52:38.070Z,67.51
2019-03-29T02:53:38.537Z,67.58
2019-03-29T02:55:55.069Z,67.51
2019-03-29T02:56:57.563Z,67.41
2019-03-29T02:57:58.008Z,67.51
2019-03-29T02:58:59.553Z,67.51
2019-03-29T02:59:59.998Z,67.51
2019-03-29T03:01:00.555Z,67.41
2019-03-29T03:02:01.001Z,67.51
2019-03-29T03:03:03.552Z,67.61
2019-03-29T03:04:04.034Z,67.61
2019-03-29T03:06:28.534Z,67.51
2019-03-29T03:07:37.757Z,67.51
2019-03-29T03:08:38.205Z,67.51
2019-03-29T03:09:54.101Z,67.65
2019-03-29T03:10:54.565Z,67.54
2019-03-29T03:39:00.545Z,68.37
2019-03-29T03:40:01.096Z,68.16
2019-03-29T03:41:08.501Z,68.16
2019-03-29T03:42:08.973Z,68.30
2019-03-29T03:43:16.068Z,68.27
2019-03-29T03:44:16.537Z,68.27
2019-03-29T03:45:32.033Z,68.16
2019-03-29T03:46:32.487Z,68.30
2019-03-29T03:47:32.968Z,68.19
2019-03-29T03:48:33.415Z,68.30
2019-03-29T03:49:33.933Z,68.30
2019-03-29T03:50:34.382Z,68.09
2019-03-29T03:51:42.519Z,68.19
2019-03-29T03:52:42.972Z,68.40
2019-03-29T03:55:00.496Z,68.40
2019-03-29T03:56:01.010Z,68.09
2019-03-29T03:57:01.488Z,68.30
2019-03-29T03:58:02.043Z,68.30
2019-03-29T03:59:02.491Z,67.78
2019-03-29T04:00:02.955Z,68.19
2019-03-29T04:01:03.414Z,67.99
2019-03-29T04:02:03.881Z,67.99
2019-03-29T04:03:06.411Z,68.09
2019-03-29T04:04:06.966Z,68.85
2019-03-29T04:05:08.204Z,68.85
2019-03-29T04:06:08.654Z,69.06
2019-03-29T04:07:09.196Z,69.06
2019-03-29T04:08:09.653Z,68.85
2019-03-29T04:09:10.215Z,68.74
2019-03-29T04:10:10.685Z,68.74
2019-03-29T04:11:11.249Z,68.85
2019-03-29T04:12:11.695Z,68.95
2019-03-29T04:13:12.146Z,69.37
2019-03-29T04:14:12.592Z,69.37
2019-03-29T04:15:35.582Z,69.47
2019-03-29T04:16:36.056Z,68.95
2019-03-29T04:17:36.579Z,68.85
2019-03-29T04:18:37.026Z,69.06
2019-03-29T04:20:54.929Z,68.95
2019-03-29T04:21:56.473Z,69.47
2019-03-29T04:22:56.912Z,68.85
2019-03-29T04:24:18.405Z,69.78
2019-03-29T04:25:18.887Z,69.06
2019-03-29T04:27:35.393Z,69.06
2019-03-29T04:28:43.513Z,68.95
2019-03-29T04:29:43.980Z,69.37
2019-03-29T04:32:08.904Z,69.26
2019-03-29T04:33:17.973Z,69.16
2019-03-29T04:34:18.437Z,69.78
2019-03-29T04:35:20.964Z,69.37
2019-03-29T04:36:21.401Z,69.40
2019-03-29T04:37:22.966Z,69.09
2019-03-29T04:38:23.409Z,69.19
2019-03-29T04:39:30.481Z,69.19
2019-03-29T04:40:31.031Z,69.40
2019-03-29T04:41:52.530Z,69.40
2019-03-29T04:42:52.968Z,69.60
2019-03-29T04:43:53.458Z,69.29
2019-03-29T04:44:53.941Z,69.32
2019-03-29T04:46:09.948Z,69.53
2019-03-29T04:47:10.386Z,69.60
2019-03-29T04:49:26.943Z,69.74
2019-03-29T04:50:27.514Z,69.60
2019-03-29T04:51:27.979Z,69.32
2019-03-29T04:52:29.444Z,69.40
2019-03-29T04:53:29.889Z,69.22
2019-03-29T05:24:16.106Z,69.43
2019-03-29T05:25:42.922Z,69.32
2019-03-29T05:26:43.397Z,69.43
2019-03-29T05:27:44.948Z,69.43
2019-03-29T05:28:45.403Z,69.43
2019-03-29T05:30:10.497Z,69.32
2019-03-29T05:31:10.956Z,69.64
2019-03-29T05:32:27.488Z,69.53
2019-03-29T05:33:27.945Z,69.43
2019-03-29T05:34:28.404Z,69.53
2019-03-29T05:35:28.868Z,69.22
2019-03-29T05:36:31.394Z,69.43
2019-03-29T05:37:31.865Z,69.43
2019-03-29T05:38:39.906Z,69.43
2019-03-29T05:39:40.350Z,69.22
2019-03-29T05:40:43.947Z,69.74
2019-03-29T05:41:44.390Z,69.53
2019-03-29T05:42:44.851Z,69.53
2019-03-29T05:43:45.369Z,69.53
2019-03-29T05:44:45.814Z,70.36
2019-03-29T05:45:46.359Z,69.74
2019-03-29T05:46:46.806Z,70.36
2019-03-29T05:47:47.363Z,70.36
2019-03-29T05:48:47.808Z,70.57
2019-03-29T05:49:48.295Z,69.81
2019-03-29T05:50:48.767Z,70.05
2019-03-29T05:51:49.325Z,70.53
2019-03-29T05:52:49.765Z,70.01
2019-03-29T05:53:50.245Z,70.43
2019-03-29T05:54:50.722Z,69.92
2019-03-29T05:55:51.229Z,70.01
2019-03-29T05:56:51.685Z,70.01
2019-03-29T05:57:52.126Z,70.22
2019-03-29T05:58:52.594Z,70.43
2019-03-29T05:59:53.192Z,69.88
2019-03-29T06:00:53.651Z,69.98
2019-03-29T06:01:54.190Z,69.98
2019-03-29T06:02:54.726Z,70.40
2019-03-29T06:03:55.280Z,69.88
2019-03-29T06:04:55.751Z,69.88
2019-03-29T06:05:56.315Z,69.88
2019-03-29T06:06:56.773Z,70.09
2019-03-29T06:07:57.315Z,69.98
2019-03-29T06:08:57.747Z,69.98
2019-03-29T06:09:58.345Z,69.85
2019-03-29T06:10:58.805Z,70.16
2019-03-29T06:11:59.397Z,70.16
2019-03-29T06:12:59.849Z,69.95
2019-03-29T07:11:16.779Z,67.58
2019-03-29T07:12:09.765Z,67.07
2019-03-29T07:13:11.294Z,66.73
2019-03-29T07:14:11.747Z,67.03
2019-03-29T07:15:18.877Z,66.90
2019-03-29T07:16:19.331Z,66.46
2019-03-29T07:17:26.475Z,66.56
2019-03-29T07:18:26.916Z,66.05
2019-03-29T07:19:34.884Z,65.71
2019-03-29T07:20:35.340Z,65.20
2019-03-29T07:21:39.953Z,65.58
2019-03-29T07:22:40.400Z,64.97
2019-03-29T07:23:55.391Z,64.73
2019-03-29T07:24:55.834Z,64.53
2019-03-29T07:25:57.349Z,64.60
2019-03-29T07:26:57.829Z,64.98
2019-03-29T07:27:59.439Z,64.36
2019-03-29T07:28:59.885Z,64.33
2019-03-29T07:30:02.396Z,63.92
2019-03-29T07:31:02.846Z,64.30
2019-03-29T07:32:18.416Z,64.20
2019-03-29T07:33:18.857Z,63.66
2019-03-29T07:34:20.439Z,63.15
2019-03-29T07:35:20.882Z,62.84
2019-03-29T07:36:21.435Z,63.22
2019-03-29T07:37:21.891Z,63.02
2019-03-29T07:38:22.335Z,62.88
2019-03-29T07:39:24.909Z,62.58
2019-03-29T07:40:25.367Z,61.43
2019-03-29T07:41:31.981Z,61.83
2019-03-29T07:42:32.403Z,61.80
2019-03-29T07:43:47.472Z,61.80
2019-03-29T07:44:47.925Z,61.91
2019-03-29T07:45:48.400Z,61.27
2019-03-29T07:46:52.922Z,61.14
2019-03-29T07:47:53.358Z,61.24
2019-03-29T07:48:53.826Z,60.91
2019-03-29T07:49:54.291Z,61.00
2019-03-29T07:50:56.813Z,60.98
2019-03-29T07:51:57.359Z,60.88
2019-03-29T07:52:57.979Z,60.88
2019-03-29T07:53:58.437Z,60.77
2019-03-29T07:54:58.997Z,60.24
2019-03-29T07:55:59.463Z,60.44
2019-03-29T07:57:05.486Z,59.53
2019-03-29T07:58:06.030Z,59.73
2019-03-29T07:59:06.590Z,59.70
2019-03-29T08:00:07.057Z,59.30
2019-03-29T08:01:08.760Z,59.47
2019-03-29T08:02:09.548Z,59.77
2019-03-29T08:03:10.088Z,59.16
2019-03-29T08:04:10.530Z,59.27
2019-03-29T08:05:11.035Z,59.16
2019-03-29T08:06:12.099Z,58.73
2019-03-29T08:07:26.301Z,59.14
2019-03-29T08:08:24.626Z,59.03
2019-03-29T08:10:48.997Z,58.50
2019-03-29T08:11:50.568Z,59.11
2019-03-29T08:12:51.053Z,58.50
2019-03-29T08:14:19.491Z,58.67
2019-03-29T08:15:19.954Z,57.76
2019-03-29T08:16:56.540Z,58.14
2019-03-29T08:17:57.015Z,57.33
2019-03-29T08:19:04.475Z,57.64
2019-03-29T08:20:36.525Z,57.33
2019-03-29T08:21:11.572Z,57.81
2019-03-29T08:22:12.036Z,57.20
2019-03-29T08:23:12.597Z,58.01
2019-03-29T08:24:13.042Z,57.17
2019-03-29T08:25:13.741Z,56.36
2019-03-29T08:26:14.214Z,56.46
2019-03-29T08:27:15.725Z,56.97
2019-03-29T08:28:16.170Z,57.04
2019-03-29T08:29:17.760Z,56.34
2019-03-29T08:30:18.204Z,56.74
2019-03-29T08:33:31.598Z,56.31
2019-03-29T08:35:55.139Z,55.60
2019-03-29T08:36:56.719Z,54.86
2019-03-29T08:37:57.173Z,55.68
2019-03-29T08:39:05.283Z,55.17
2019-03-29T08:40:05.757Z,55.17
2019-03-29T08:41:08.317Z,54.56
2019-03-29T08:42:08.836Z,54.86
2019-03-29T08:43:32.394Z,54.56
2019-03-29T08:44:32.840Z,54.74
2019-03-29T08:45:40.190Z,54.44
2019-03-29T08:46:40.639Z,53.52
2019-03-29T08:47:59.319Z,53.12
2019-03-29T08:48:59.791Z,52.79
2019-03-29T08:50:08.273Z,53.40
2019-03-29T08:51:08.765Z,52.69
2019-03-29T08:52:42.221Z,52.79
2019-03-29T08:53:42.681Z,53.19
2019-03-29T08:54:44.242Z,53.19
2019-03-29T08:55:46.268Z,52.26
2019-03-29T08:56:49.090Z,53.07
2019-03-29T08:57:49.542Z,52.84
2019-03-29T08:59:11.124Z,53.05
2019-03-29T09:00:11.592Z,52.54
2019-03-29T09:01:13.163Z,52.34
2019-03-29T09:02:13.660Z,52.34
2019-03-29T09:03:37.251Z,52.31
2019-03-29T09:04:37.737Z,52.72
2019-03-29T09:05:39.551Z,52.41
2019-03-29T09:06:52.668Z,52.01
2019-03-29T09:07:50.765Z,52.82
2019-03-29T09:08:51.298Z,52.11
2019-03-29T09:09:54.763Z,51.58
2019-03-29T09:10:55.299Z,51.00
2019-03-29T09:13:04.838Z,51.38
2019-03-29T09:15:28.736Z,50.24
2019-03-29T09:16:45.411Z,50.55
2019-03-29T09:17:46.123Z,51.25
2019-03-29T09:18:46.665Z,49.74
2019-03-29T09:19:47.124Z,49.92
2019-03-29T09:20:49.665Z,50.32
2019-03-29T09:21:50.116Z,50.73
2019-03-29T09:22:52.659Z,50.22
2019-03-29T09:23:54.449Z,50.30
2019-03-29T09:24:57.049Z,50.50
2019-03-29T09:25:57.498Z,50.20
2019-03-29T09:29:25.199Z,50.20
2019-03-29T09:31:41.930Z,49.67
2019-03-29T09:32:42.498Z,49.87
2019-03-29T09:33:42.955Z,49.27
2019-03-29T09:34:43.503Z,48.86
2019-03-29T09:35:43.945Z,48.66
2019-03-29T09:37:00.081Z,48.76
2019-03-29T09:38:00.835Z,48.94
2019-03-29T09:39:16.137Z,49.24
2019-03-29T09:40:17.848Z,49.04
2019-03-29T09:41:25.719Z,49.24
2019-03-29T09:42:29.479Z,48.94
2019-03-29T09:43:59.542Z,49.24
2019-03-29T09:45:00.031Z,49.24
2019-03-29T09:46:03.513Z,48.32
2019-03-29T09:47:04.165Z,47.81
2019-03-29T09:48:20.096Z,47.31
2019-03-29T09:49:20.852Z,47.81
2019-03-29T09:50:23.039Z,47.91
2019-03-29T09:51:23.766Z,48.21
2019-03-29T09:53:41.335Z,47.81
2019-03-29T09:54:44.043Z,47.99
2019-03-29T09:55:45.880Z,47.99
2019-03-29T09:56:53.488Z,47.39
2019-03-29T09:57:54.013Z,47.06
2019-03-29T09:59:01.501Z,47.06
2019-03-29T10:00:01.940Z,47.36
2019-03-29T10:01:02.438Z,47.16
2019-03-29T10:02:02.872Z,47.56
2019-03-29T10:03:03.418Z,47.04
2019-03-29T10:04:04.091Z,47.54
2019-03-29T10:05:04.617Z,47.74
2019-03-29T10:06:05.146Z,46.84
2019-03-29T10:07:05.592Z,46.64
2019-03-29T10:08:06.424Z,46.73
2019-03-29T10:09:06.881Z,46.61
2019-03-29T10:10:09.479Z,46.72
2019-03-29T10:11:09.943Z,46.72
2019-03-29T10:12:11.645Z,45.61
2019-03-29T10:13:12.310Z,45.79
2019-03-29T10:14:12.982Z,45.99
2019-03-29T10:15:13.486Z,46.29
2019-03-29T10:16:14.081Z,46.19
2019-03-29T10:17:14.651Z,46.59
2019-03-29T10:18:19.687Z,45.89
2019-03-29T10:19:20.184Z,45.69
2019-03-29T10:20:20.743Z,45.69
2019-03-29T10:21:21.207Z,45.89
2019-03-29T10:24:48.535Z,44.76
2019-03-29T10:25:49.130Z,44.59
2019-03-29T10:26:49.618Z,45.29
2019-03-29T10:27:58.786Z,45.09
2019-03-29T10:28:59.352Z,45.18
2019-03-29T10:30:21.993Z,45.69
2019-03-29T10:31:31.973Z,44.26
2019-03-29T10:32:28.879Z,44.67
2019-03-29T10:33:30.546Z,44.67
2019-03-29T10:34:31.019Z,45.06
2019-03-29T10:35:32.626Z,44.36
2019-03-29T10:36:33.072Z,44.56
2019-03-29T10:37:55.676Z,44.24
2019-03-29T10:38:56.152Z,44.26
2019-03-29T10:39:57.752Z,44.56
2019-03-29T10:40:58.304Z,44.34
2019-03-29T10:41:59.910Z,44.04
2019-03-29T10:43:00.385Z,44.24
2019-03-29T10:44:09.872Z,44.24
2019-03-29T10:45:10.337Z,44.12
2019-03-29T10:46:25.764Z,44.32
2019-03-29T10:47:42.533Z,43.72
2019-03-29T10:55:46.214Z,44.10
2019-03-29T10:56:46.731Z,43.58
2019-03-29T10:57:56.142Z,43.60
2019-03-29T10:58:56.647Z,42.57
2019-03-29T10:59:57.263Z,42.57
2019-03-29T11:00:57.725Z,42.88
2019-03-29T11:02:28.094Z,42.96
2019-03-29T11:03:28.976Z,42.55
2019-03-29T11:15:01.491Z,32.84
2019-03-29T11:16:01.937Z,31.22
2019-03-29T11:19:12.466Z,25.52
2019-03-29T11:22:11.362Z,21.66
2019-03-29T11:23:11.896Z,21.04
2019-03-29T11:24:15.559Z,19.18
2019-03-29T11:25:16.032Z,19.35
2019-03-29T11:26:23.487Z,18.74
2019-03-29T11:27:24.044Z,18.62
2019-03-29T11:28:57.532Z,19.45
2019-03-29T11:29:58.014Z,17.43
2019-03-29T11:31:06.515Z,17.23
2019-03-29T11:32:07.310Z,17.13
2019-03-29T11:33:15.539Z,16.55
2019-03-29T11:34:16.045Z,15.60
2019-03-29T11:35:17.615Z,16.06
2019-03-29T11:36:18.091Z,15.48
2019-03-29T11:37:19.655Z,15.77
2019-03-29T11:38:20.161Z,15.39
2019-03-29T11:39:20.691Z,15.47
2019-03-29T11:40:21.306Z,14.62
2019-03-29T11:41:57.468Z,14.14
2019-03-29T11:42:57.986Z,13.95
2019-03-29T11:49:25.122Z,12.69
2019-03-29T11:50:28.876Z,13.16
2019-03-29T11:51:29.987Z,13.07
2019-03-29T11:52:33.690Z,13.26
2019-03-29T11:53:34.391Z,12.69
2019-03-29T11:54:34.922Z,12.87
2019-03-29T11:55:35.378Z,13.15
2019-03-29T11:56:35.875Z,13.15
2019-03-29T11:57:36.332Z,13.14
2019-03-29T11:58:36.778Z,12.38
2019-03-29T11:59:40.010Z,12.19
2019-03-29T12:00:40.794Z,12.10
2019-03-29T12:01:41.238Z,12.20
2019-03-29T12:02:41.678Z,11.73
2019-03-29T12:03:42.142Z,11.73
2019-03-29T12:04:42.621Z,12.01
2019-03-29T13:33:22.487Z,12.42
2019-03-29T13:34:22.957Z,11.29
2019-03-29T13:35:28.428Z,11.29
2019-03-29T13:36:28.882Z,11.76
2019-03-29T13:37:29.434Z,11.94
2019-03-29T13:38:29.871Z,11.94
2019-03-29T13:39:31.391Z,11.27
2019-03-29T13:40:31.841Z,11.55
2019-03-29T13:41:38.982Z,11.46
2019-03-29T13:42:39.429Z,10.70
2019-03-29T13:43:39.925Z,10.60
2019-03-29T13:44:40.361Z,10.32
2019-03-29T13:45:40.883Z,11.08
2019-03-29T13:46:41.334Z,10.32
2019-03-29T13:47:42.811Z,10.41
2019-03-29T13:48:43.248Z,10.03
2019-03-29T13:49:43.836Z,10.04
2019-03-29T13:50:44.355Z,10.42
2019-03-29T15:37:09.834Z,30.73
2019-03-29T15:38:10.566Z,31.12
2019-03-29T15:39:11.016Z,32.04
2019-03-29T15:40:11.563Z,31.12
2019-03-29T15:41:12.007Z,31.64
2019-03-29T15:42:13.524Z,31.34
2019-03-29T15:43:13.963Z,31.76
2019-03-29T15:44:14.506Z,31.76
2019-03-29T15:45:20.643Z,31.56
2019-03-29T15:46:21.399Z,32.37
2019-03-29T15:47:21.858Z,31.77
2019-03-29T15:48:22.439Z,31.97
2019-03-29T15:49:22.988Z,32.99
2019-03-29T15:50:23.455Z,32.87
2019-03-29T15:51:23.950Z,32.77
2019-03-29T15:52:24.563Z,32.39
2019-03-29T15:53:25.001Z,33.49
2019-03-29T15:54:25.532Z,33.09
2019-03-29T15:55:25.980Z,33.29
2019-03-29T15:56:26.547Z,33.71
2019-03-29T15:57:26.983Z,34.81
2019-03-29T15:58:27.509Z,34.21
2019-03-29T15:59:27.945Z,34.33
2019-03-29T16:00:28.446Z,34.22
2019-03-29T16:01:28.902Z,35.13
2019-03-29T16:02:29.386Z,34.73
2019-03-29T16:03:29.819Z,34.14
2019-03-29T16:04:30.260Z,34.94
2019-03-29T16:05:30.728Z,34.74
2019-03-29T16:06:31.189Z,34.74
2019-03-29T16:07:34.813Z,34.54
2019-03-29T16:08:35.565Z,34.84
2019-03-29T16:09:36.080Z,35.06
2019-03-29T16:10:36.546Z,34.86
2019-03-29T16:11:37.073Z,35.46
2019-03-29T16:12:37.510Z,35.48
2019-03-29T16:13:38.054Z,36.57
2019-03-29T16:14:38.518Z,36.08
2019-03-29T16:15:39.099Z,35.86
2019-03-29T16:16:39.587Z,36.49
2019-03-29T16:17:40.105Z,36.58
2019-03-29T16:18:40.660Z,36.69
2019-03-29T16:19:41.176Z,36.58
2019-03-29T16:20:41.692Z,36.69
2019-03-29T16:21:42.240Z,36.29
2019-03-29T16:22:42.707Z,36.18
2019-03-29T16:23:43.342Z,36.08
2019-03-29T16:24:43.795Z,35.88
2019-03-29T16:25:44.292Z,36.29
2019-03-29T16:26:44.741Z,36.18
2019-03-29T16:27:47.263Z,37.91
2019-03-29T16:28:47.706Z,37.61
2019-03-29T16:29:48.207Z,38.01
2019-03-29T16:30:48.649Z,38.31
2019-03-29T16:31:49.163Z,37.81
2019-03-29T16:32:49.615Z,37.63
2019-03-29T16:33:50.070Z,38.03
2019-03-29T16:34:50.866Z,37.52
2019-03-29T16:35:51.414Z,37.43
2019-03-29T16:36:51.873Z,38.43
2019-03-29T16:37:57.506Z,37.74
2019-03-29T16:38:59.835Z,37.95
2019-03-29T16:40:00.376Z,38.25
2019-03-29T16:41:00.932Z,38.65
2019-03-29T16:42:01.398Z,38.55
2019-03-29T16:43:01.918Z,39.05
2019-03-29T16:44:02.362Z,39.15
2019-03-29T16:45:02.949Z,38.97
2019-03-29T16:46:03.388Z,38.97
2019-03-29T16:47:03.916Z,38.77
2019-03-29T16:48:06.615Z,39.07
2019-03-29T16:49:07.455Z,38.87
2019-03-29T16:50:08.022Z,39.07
2019-03-29T16:51:08.630Z,38.59
2019-03-29T16:52:09.109Z,38.77
2019-03-29T16:53:09.556Z,38.69
2019-03-29T16:54:10.008Z,38.67
2019-03-29T16:55:13.605Z,38.69
2019-03-29T16:56:14.615Z,39.50
2019-03-29T16:57:15.083Z,39.70
2019-03-29T16:58:15.649Z,39.79
2019-03-29T16:59:16.113Z,39.39
2019-03-29T17:00:16.675Z,39.29
2019-03-29T17:01:17.156Z,39.09
2019-03-29T17:02:17.812Z,39.19
2019-03-29T17:03:18.246Z,39.19
2019-03-29T17:04:18.688Z,39.92
2019-03-29T17:05:19.147Z,40.01
2019-03-29T17:06:19.592Z,39.61
2019-03-29T17:07:20.079Z,39.61
2019-03-29T17:08:20.524Z,39.61
2019-03-29T17:09:20.986Z,40.62
2019-03-29T17:10:21.431Z,39.92
2019-03-29T17:11:21.875Z,41.05
2019-03-29T17:12:43.315Z,40.82
2019-03-29T17:13:44.416Z,40.23
2019-03-29T17:14:44.913Z,41.25
2019-03-29T17:15:45.351Z,40.14
2019-03-29T17:16:45.830Z,40.23
2019-03-29T17:17:46.290Z,39.83
2019-03-29T17:18:46.746Z,40.34
2019-03-29T17:19:47.216Z,40.56
2019-03-29T17:20:47.736Z,40.76
2019-03-29T17:21:48.212Z,40.46
2019-03-29T17:23:04.863Z,41.47
2019-03-29T17:24:05.315Z,41.28
2019-03-29T17:25:05.824Z,41.39
2019-03-29T17:26:06.310Z,41.08
2019-03-29T17:27:06.896Z,41.59
2019-03-29T17:28:07.340Z,41.59
2019-03-29T17:29:07.802Z,42.01
2019-03-29T17:30:08.244Z,41.81
2019-03-29T17:31:15.298Z,41.71
2019-03-29T17:32:15.780Z,41.81
2019-03-29T17:33:16.335Z,42.01
2019-03-29T17:34:16.805Z,42.64
2019-03-29T17:35:17.249Z,42.23
2019-03-29T17:36:17.696Z,42.33
2019-03-29T17:37:18.197Z,42.33
2019-03-29T17:38:18.647Z,42.76
2019-03-29T17:39:21.984Z,42.54
2019-03-29T17:40:22.764Z,43.26
2019-03-29T17:41:23.198Z,43.37
2019-03-29T17:42:23.659Z,42.86
2019-03-29T17:43:24.177Z,43.26
2019-03-29T17:44:24.651Z,43.38
2019-03-29T17:45:25.188Z,43.29
2019-03-29T17:46:25.643Z,43.79
2019-03-29T17:47:26.159Z,44.29
2019-03-29T17:48:26.605Z,44.42
2019-03-29T17:49:27.062Z,44.12
2019-03-29T17:50:27.508Z,44.62
2019-03-29T17:51:27.959Z,44.72
2019-03-29T17:52:28.416Z,44.52
2019-03-29T17:53:28.863Z,44.72
2019-03-29T17:54:29.440Z,44.03
2019-03-29T17:55:31.757Z,44.84
2019-03-29T17:56:32.516Z,44.95
2019-03-29T17:57:32.987Z,44.54
2019-03-29T17:58:33.445Z,44.64
2019-03-29T17:59:33.891Z,45.27
2019-03-29T18:00:34.435Z,44.87
2019-03-29T18:01:34.905Z,45.67
2019-03-29T18:02:35.372Z,44.96
2019-03-29T18:03:35.822Z,45.17
2019-03-29T18:04:36.272Z,45.39
2019-03-29T18:05:36.718Z,45.47
2019-03-29T18:06:37.169Z,45.09
2019-03-29T18:07:37.632Z,45.50
2019-03-29T18:08:38.103Z,45.70
2019-03-29T18:09:38.545Z,46.12
2019-03-29T18:10:38.980Z,46.22
2019-03-29T18:11:39.420Z,45.82
2019-03-29T18:12:39.929Z,45.62
2019-03-29T18:13:40.400Z,46.02
2019-03-29T18:14:40.848Z,46.53
2019-03-29T18:15:41.285Z,46.63
2019-03-29T18:16:41.733Z,46.33
2019-03-29T18:17:42.196Z,46.25
2019-03-29T18:18:42.664Z,46.02
2019-03-29T18:19:43.107Z,45.94
2019-03-29T18:20:43.560Z,46.04
2019-03-29T18:21:44.100Z,47.26
2019-03-29T18:22:44.577Z,47.36
2019-03-29T18:23:45.139Z,47.18
2019-03-29T18:24:45.589Z,47.59
2019-03-29T18:25:46.040Z,47.08
2019-03-29T18:26:46.476Z,47.59
2019-03-29T18:27:46.943Z,47.59
2019-03-29T18:28:47.394Z,47.49
2019-03-29T18:29:47.914Z,47.61
2019-03-29T18:30:48.361Z,47.41
2019-03-29T18:31:48.819Z,48.11
2019-03-29T18:32:49.340Z,48.32
2019-03-29T18:33:49.781Z,47.91
2019-03-29T18:34:51.271Z,48.32
2019-03-29T18:35:51.716Z,48.11
2019-03-29T18:36:53.408Z,48.42
2019-03-29T18:37:53.871Z,48.65
2019-03-29T18:38:54.324Z,48.65
2019-03-29T18:39:55.163Z,48.34
2019-03-29T18:40:55.772Z,49.16
2019-03-29T18:41:56.214Z,48.44
2019-03-29T18:42:56.688Z,49.16
2019-03-29T18:43:57.138Z,48.75
2019-03-29T18:44:57.580Z,48.97
2019-03-29T18:45:58.018Z,49.89
2019-03-29T18:46:58.465Z,49.79
2019-03-29T18:47:58.923Z,49.69
2019-03-29T18:48:59.366Z,49.28
2019-03-29T18:49:59.806Z,49.79
2019-03-29T18:51:00.256Z,49.18
2019-03-29T18:52:00.702Z,50.29
2019-03-29T18:53:01.156Z,50.73
2019-03-29T18:54:01.598Z,49.79
2019-03-29T18:55:02.045Z,50.20
2019-03-29T18:56:02.486Z,49.71
2019-03-29T18:57:02.935Z,49.81
2019-03-29T18:58:05.856Z,50.12
2019-03-29T18:59:06.555Z,49.91
2019-03-29T19:00:07.001Z,50.32
2019-03-29T19:01:07.466Z,49.81
2019-03-29T19:02:07.912Z,50.55
2019-03-29T19:03:11.630Z,50.32
2019-03-29T19:04:12.580Z,50.32
2019-03-29T19:05:13.050Z,50.55
2019-03-29T19:11:01.536Z,50.47
2019-03-29T19:12:01.977Z,49.96
2019-03-29T19:13:02.442Z,49.96
2019-03-29T19:14:02.895Z,50.06
2019-03-29T19:15:03.335Z,50.26
2019-03-29T19:16:03.775Z,50.78
2019-03-29T19:17:04.236Z,50.78
2019-03-29T19:18:04.708Z,50.87
2019-03-29T19:19:10.185Z,50.70
2019-03-29T19:20:16.234Z,50.70
2019-03-29T19:21:18.007Z,50.70